KXNA/XNA METAR and TAF weather

Enter ICAO airport designator
Station Type Date Time Source
KXNA METAR 2020/09/28 08:53 UTC NOAA

KXNA 280853Z AUTO 36007KT 10SM SCT009 OVC100 12/10 A2998 RMK AO2 SLP140 T01170100 50001


Station Type Date Time Source
KXNA Decoded METAR 2020/09/28 08:53 UTC NOAA

NORTHWEST ARKANSAS REGIONAL, AR, United States (KXNA) 36-17N 94-18W
Sep 28, 2020 - 04:53 AM EDT / 2020.09.28 0853 UTC
Wind: from the N (360 degrees) at 8 MPH (7 KT):0
Visibility: 10 mile(s):0
Sky conditions: overcast
Temperature: 53.1 F (11.7 C)
Dew Point: 50.0 F (10.0 C)
Relative Humidity: 89%
Pressure (altimeter): 29.98 in. Hg (1015 hPa)
Pressure tendency: 0.00 inches (0.1 hPa) higher than three hours ago
ob: KXNA 280853Z AUTO 36007KT 10SM SCT009 OVC100 12/10 A2998 RMK AO2 SLP140 T01170100 50001
cycle: 9

Station Type Date Time Source
KXNA TAF 2020/09/28 06:54 UTC NOAA

TAF KXNA 280553Z 2806/2906 01012KT P6SM SCT015 OVC080
FM280900 34011KT P6SM BKN100
FM281200 33009KT P6SM FEW120
FM281500 33012G20KT P6SM SKC
FM281900 33015G23KT P6SM SCT050
FM290000 32007KT P6SM SKC
AMD NOT SKED 2806/2809

Example: see airport list